MDT,Max TemperatureF,Mean TemperatureF,Min TemperatureF,Max Dew PointF,MeanDew PointF,Min DewpointF,Max Humidity, Mean Humidity, Min Humidity, Max Sea Level PressureIn, Mean Sea Level PressureIn, Min Sea Level PressureIn, Max VisibilityMiles, Mean VisibilityMiles, Min VisibilityMiles, Max Wind SpeedMPH, Mean Wind SpeedMPH, Max Gust SpeedMPH,PrecipitationIn, CloudCover, Events, WindDirDegrees
2013-7-1,80,64,48,52,47,43,88,61,26,30.45,30.37,30.28,10,10,4,25,6,32,0.03,1,,100
2013-7-2,82,66,50,52,47,36,88,59,20,30.44,30.35,30.22,10,10,10,22,5,30,0.02,4,Thunderstorm,175
2013-7-3,84,67,50,50,44,36,88,53,18,30.36,30.26,30.13,10,10,8,23,4,31,0.00,3,Thunderstorm,112
2013-7-4,87,66,46,45,39,36,66,37,17,30.22,30.17,30.11,10,10,10,24,6,33,0.00,1,,99
2013-7-5,86,72,57,55,47,43,88,52,25,30.23,30.17,30.07,10,10,9,33,7,40,0.38,2,Thunderstorm,72
2013-7-6,84,68,51,55,52,46,94,64,27,30.27,30.20,30.14,10,10,10,32,6,38,0.03,3,,50
2013-7-7,86,70,55,54,50,45,88,51,25,30.30,30.25,30.19,10,10,10,23,7,30,0.00,2,Thunderstorm,87
2013-7-8,87,74,60,54,50,43,72,49,24,30.39,30.35,30.31,10,10,10,24,5,33,0.00,2,Thunderstorm,61
2013-7-9,89,72,55,54,48,45,72,47,22,30.43,30.38,30.33,10,10,9,23,7,31,0.00,1,Thunderstorm,39
2013-7-10,87,71,55,54,48,45,72,50,23,30.43,30.37,30.33,10,10,10,26,7,31,0.00,2,Thunderstorm,66
2013-7-11,84,68,51,54,49,45,82,51,26,30.39,30.30,30.19,10,10,10,29,7,21,0.03,1,Thunderstorm,219
2013-7-12,84,70,55,61,51,46,73,55,29,30.30,30.26,30.22,10,10,1,17,7,25,0.05,2,Thunderstorm,152
2013-7-13,84,68,53,57,52,46,82,59,27,30.35,30.30,30.25,10,10,7,21,4,32,0.14,2,Thunderstorm,132
2013-7-14,87,70,53,57,53,45,94,67,22,30.34,30.29,30.20,10,10,8,24,5,31,0.06,3,Thunderstorm,41
2013-7-15,69,62,55,57,55,50,94,80,56,30.34,30.30,30.24,10,10,6,16,4,18,0.26,8,,235
2013-7-16,73,60,48,54,48,43,94,65,33,30.42,30.34,30.30,10,10,10,22,6,26,0.09,7,,157
2013-7-17,78,63,48,48,46,45,87,58,32,30.49,30.43,30.37,10,10,8,17,8,23,0.00,1,,166
2013-7-18,82,65,48,52,48,45,88,56,28,30.46,30.37,30.25,10,10,5,20,5,30,0.00,2,,247
2013-7-19,84,68,53,54,49,46,77,58,28,30.35,30.31,30.24,10,10,3,26,6,32,0.00,2,Thunderstorm,88
2013-7-20,86,70,53,57,51,43,94,63,25,30.33,30.23,30.12,10,10,8,28,6,52,0.06,3,Thunderstorm,100
2013-7-21,84,70,55,55,50,43,88,57,23,30.26,30.21,30.15,10,10,10,23,6,38,0.02,1,Thunderstorm,108
2013-7-22,91,71,51,46,42,34,77,41,14,30.27,30.23,30.16,10,10,10,16,4,23,0.00,1,,35
2013-7-23,89,72,55,46,42,37,63,38,18,30.32,30.27,30.24,10,10,9,28,6,37,0.00,1,,50
2013-7-24,87,74,60,52,44,36,72,41,16,30.41,30.32,30.24,10,10,10,37,7,44,0.00,2,Thunderstorm,139
2013-7-25,82,66,51,57,50,45,88,58,26,30.41,30.34,30.24,10,10,10,26,4,33,0.05,3,Thunderstorm,353
2013-7-26,80,66,53,55,51,43,94,65,31,30.48,30.42,30.35,10,10,10,28,6,34,0.03,2,Thunderstorm,290
2013-7-27,78,63,48,55,49,45,93,64,34,30.48,30.34,30.19,10,10,10,18,6,25,0.13,1,Thunderstorm,284
2013-7-28,75,65,55,55,54,52,94,76,50,30.30,30.21,30.16,10,10,5,22,5,30,0.45,5,Thunderstorm,354
2013-7-29,82,66,50,55,50,45,94,70,26,30.36,30.26,30.21,10,10,10,20,7,26,0.00,1,,319
2013-7-30,86,68,50,48,43,36,82,52,17,30.47,30.41,30.36,10,10,10,15,5,22,0.00,1,,330
2013-7-31,87,69,51,52,42,34,63,41,15,30.50,30.42,30.32,10,10,10,22,5,33,0.00,1,,351